»·PEaware :: N118DE KMHV-KSBD

N118DE :: KMHV-KSBD

FLIGHT INFORMATION

Flight Status: Arrived
Operator: Privately registered:
United States
More flights under this callsign
Pilot: David E. (38082)
Aircraft: CIRRUS SR-22
(SR22)
More flights by this aircraft type
Origin: KMHV Mojave
United States
Destination: KSBD San Bernardino Intl
United States
More flights between these airports :: More routes between these airports
Route:
File this flight plan on PilotEdge
Remarks:
Altitude:
(Current/Filed)
7,500ft
Speed:
(Current/Filed)
0kts
Departed: 20-Feb-23 09:33 AM
Arrived: 20-Feb-23 10:13 AM
Distance/Time
Traveled:
73nm/0:39
Distance/Time
To Go:
Arrived

Flight Plot

Page will automatically refresh every two minutes.

Flight plan parsing failed; only flown route is shown


Map Options




Map Legend


Flown Route
Filed Route
Departure Airport
Arrival Airport
Navaid (VOR, NDB)
Fix

Horizontal Profiles

Position Reports

Time Latitude Longitude Heading Altitude Ground
Speed
20-Feb-23 08:59 35.057419 -118.150908 92 2754ft 0kts
20-Feb-23 09:00 35.057419 -118.150908 92 2754ft 0kts
20-Feb-23 09:01 35.057419 -118.150908 92 2754ft 0kts
20-Feb-23 09:02 35.057419 -118.150908 92 2754ft 0kts
20-Feb-23 09:03 35.057419 -118.150908 92 2754ft 0kts
20-Feb-23 09:04 35.057419 -118.150908 92 2754ft 0kts
20-Feb-23 09:05 35.057419 -118.150908 92 2754ft 0kts
20-Feb-23 09:06 35.057419 -118.150908 92 2754ft 0kts
20-Feb-23 09:07 35.057419 -118.150908 92 2754ft 0kts
20-Feb-23 09:08 35.057419 -118.150908 92 2754ft 0kts
20-Feb-23 09:09 35.057419 -118.150908 92 2754ft 0kts
20-Feb-23 09:10 35.057419 -118.150908 92 2754ft 0kts
20-Feb-23 09:11 35.057419 -118.150908 92 2754ft 0kts
20-Feb-23 09:12 35.057419 -118.150908 92 2754ft 0kts
20-Feb-23 09:13 35.057419 -118.150908 92 2754ft 0kts
20-Feb-23 09:14 35.057419 -118.150908 92 2754ft 0kts
20-Feb-23 09:15 35.057419 -118.150908 92 2754ft 0kts
20-Feb-23 09:16 35.057419 -118.150908 92 2754ft 0kts
20-Feb-23 09:17 35.057419 -118.150908 92 2754ft 0kts
20-Feb-23 09:18 35.057419 -118.150908 92 2754ft 0kts
20-Feb-23 09:19 35.057419 -118.150908 92 2754ft 0kts
20-Feb-23 09:19 35.057419 -118.150908 92 2754ft 0kts
20-Feb-23 09:20 35.057419 -118.150908 92 2754ft 0kts
20-Feb-23 09:22 35.057419 -118.150908 92 2754ft 0kts
20-Feb-23 09:23 35.057419 -118.150908 92 2754ft 0kts
20-Feb-23 09:24 35.057419 -118.150908 92 2754ft 0kts
20-Feb-23 09:24 35.057420 -118.150908 92 2754ft 0kts
20-Feb-23 09:25 35.057627 -118.150553 92 2754ft 9kts
20-Feb-23 09:26 35.057618 -118.147682 89 2749ft 0kts
20-Feb-23 09:28 35.057936 -118.142567 6 2739ft 9kts
20-Feb-23 09:28 35.058437 -118.142560 358 2739ft 0kts
20-Feb-23 09:29 35.058437 -118.142560 358 2739ft 0kts
20-Feb-23 09:30 35.058437 -118.142560 358 2739ft 0kts
20-Feb-23 09:31 35.059196 -118.142993 270 2740ft 0kts
20-Feb-23 09:32 35.059328 -118.168987 269 3261ft 108kts
20-Feb-23 09:33 35.035401 -118.186791 184 4652ft 113kts
20-Feb-23 09:34 35.004555 -118.185997 166 5904ft 110kts
20-Feb-23 09:35 34.973753 -118.181820 166 7127ft 112kts
20-Feb-23 09:36 34.936667 -118.186245 188 7468ft 164kts
20-Feb-23 09:37 34.889020 -118.200067 188 7480ft 183kts
20-Feb-23 09:38 34.838516 -118.208690 179 7480ft 183kts
20-Feb-23 09:39 34.787827 -118.213885 179 7547ft 179kts
20-Feb-23 09:40 34.739081 -118.212751 142 7610ft 171kts
20-Feb-23 09:41 34.709377 -118.169992 123 7613ft 166kts
20-Feb-23 09:42 34.680537 -118.125701 123 7610ft 166kts
20-Feb-23 09:43 34.651791 -118.081622 124 7619ft 167kts
20-Feb-23 09:44 34.622834 -118.037266 124 7615ft 169kts
20-Feb-23 09:45 34.594021 -117.993210 124 7606ft 167kts
20-Feb-23 09:46 34.564935 -117.948792 124 7596ft 167kts
20-Feb-23 09:47 34.536061 -117.904703 124 7578ft 167kts
20-Feb-23 09:48 34.507137 -117.860627 124 7564ft 166kts
20-Feb-23 09:49 34.480103 -117.815752 111 7550ft 163kts
20-Feb-23 09:50 34.460504 -117.765350 113 7516ft 167kts
20-Feb-23 09:51 34.440406 -117.714662 113 7519ft 167kts
20-Feb-23 09:52 34.420181 -117.663805 113 7530ft 169kts
20-Feb-23 09:53 34.399697 -117.612232 113 7531ft 170kts
20-Feb-23 09:54 34.391251 -117.557142 93 7542ft 169kts
20-Feb-23 09:55 34.387932 -117.500186 92 7546ft 169kts
20-Feb-23 09:56 34.384585 -117.443506 92 7547ft 168kts
20-Feb-23 09:57 34.381233 -117.387365 93 7549ft 167kts
20-Feb-23 09:58 34.377850 -117.331275 93 7547ft 167kts
20-Feb-23 09:59 34.360716 -117.279356 115 7551ft 169kts
20-Feb-23 10:00 34.338505 -117.228933 115 7514ft 169kts
20-Feb-23 10:01 34.316082 -117.178312 116 7519ft 172kts
20-Feb-23 10:02 34.277967 -117.150640 177 7501ft 181kts
20-Feb-23 10:03 34.230714 -117.149713 176 6798ft 161kts
20-Feb-23 10:04 34.188322 -117.147980 176 5760ft 158kts
20-Feb-23 10:05 34.150430 -117.147935 183 5418ft 119kts
20-Feb-23 10:06 34.112000 -117.149375 190 4198ft 137kts
20-Feb-23 10:07 34.083539 -117.174245 280 2913ft 140kts
20-Feb-23 10:08 34.089181 -117.219499 253 1874ft 132kts
20-Feb-23 10:09 34.075229 -117.256204 233 1452ft 116kts
20-Feb-23 10:10 34.080332 -117.275395 12 1396ft 97kts
20-Feb-23 10:11 34.090572 -117.251075 74 1149ft 75kts
20-Feb-23 10:12 34.094769 -117.240678 33 1109ft 0kts
20-Feb-23 10:13 34.094769 -117.240678 33 1109ft 0kts
20-Feb-23 10:14 34.094769 -117.240678 33 1109ft 0kts
20-Feb-23 10:15 34.098355 -117.237619 34 1121ft 15kts
20-Feb-23 10:16 34.102432 -117.238265 286 1115ft 28kts
20-Feb-23 10:17 34.102514 -117.243672 331 1104ft 1kts
20-Feb-23 10:18 34.102609 -117.243525 0 1104ft 0kts
20-Feb-23 10:19 34.102609 -117.243525 0 1104ft 0kts
20-Feb-23 10:20 34.102609 -117.243525 0 1104ft 0kts
20-Feb-23 10:21 34.102609 -117.243525 0 1104ft 0kts
20-Feb-23 10:22 34.102609 -117.243525 0 1104ft 0kts
20-Feb-23 10:23 34.102609 -117.243525 0 1104ft 0kts
20-Feb-23 10:24 34.102609 -117.243525 0 1104ft 0kts

Navigation Log

Ident Type
Flight plan parsing failed, navigation log unavailable